sensor_id;sensor_type;location;lat;lon;timestamp;P1;durP1;ratioP1;P2;durP2;ratioP2
15295;SDS011;7749;49.964;7.890;2023-09-12T00:01:08;8.90;;;6.05;;
15295;SDS011;7749;49.964;7.890;2023-09-12T00:03:36;12.60;;;5.88;;
15295;SDS011;7749;49.964;7.890;2023-09-12T00:06:04;6.95;;;5.60;;
15295;SDS011;7749;49.964;7.890;2023-09-12T00:08:31;9.07;;;5.72;;
15295;SDS011;7749;49.964;7.890;2023-09-12T00:11:00;8.30;;;5.65;;
15295;SDS011;7749;49.964;7.890;2023-09-12T00:13:29;12.13;;;6.70;;
15295;SDS011;7749;49.964;7.890;2023-09-12T00:15:57;13.95;;;6.40;;
15295;SDS011;7749;49.964;7.890;2023-09-12T00:18:25;9.88;;;6.53;;
15295;SDS011;7749;49.964;7.890;2023-09-12T00:20:53;12.20;;;6.57;;
15295;SDS011;7749;49.964;7.890;2023-09-12T00:23:21;8.48;;;6.00;;
15295;SDS011;7749;49.964;7.890;2023-09-12T00:25:50;12.02;;;6.80;;
15295;SDS011;7749;49.964;7.890;2023-09-12T00:28:22;12.90;;;7.38;;
15295;SDS011;7749;49.964;7.890;2023-09-12T00:30:49;11.10;;;6.97;;
15295;SDS011;7749;49.964;7.890;2023-09-12T00:33:18;13.15;;;6.53;;
15295;SDS011;7749;49.964;7.890;2023-09-12T00:35:46;10.40;;;6.45;;
15295;SDS011;7749;49.964;7.890;2023-09-12T00:38:14;9.85;;;6.47;;
15295;SDS011;7749;49.964;7.890;2023-09-12T00:40:41;12.70;;;6.82;;
15295;SDS011;7749;49.964;7.890;2023-09-12T00:43:09;11.55;;;6.00;;
15295;SDS011;7749;49.964;7.890;2023-09-12T00:45:37;8.18;;;5.97;;
15295;SDS011;7749;49.964;7.890;2023-09-12T00:48:04;12.48;;;6.18;;
15295;SDS011;7749;49.964;7.890;2023-09-12T00:50:34;10.57;;;6.13;;
15295;SDS011;7749;49.964;7.890;2023-09-12T00:53:03;12.30;;;6.25;;
15295;SDS011;7749;49.964;7.890;2023-09-12T00:55:31;10.63;;;6.57;;
15295;SDS011;7749;49.964;7.890;2023-09-12T00:58:01;10.90;;;6.07;;
15295;SDS011;7749;49.964;7.890;2023-09-12T01:00:29;15.48;;;6.65;;
15295;SDS011;7749;49.964;7.890;2023-09-12T01:02:57;7.82;;;5.75;;
15295;SDS011;7749;49.964;7.890;2023-09-12T01:05:25;12.20;;;6.50;;
15295;SDS011;7749;49.964;7.890;2023-09-12T01:07:53;14.85;;;6.18;;
15295;SDS011;7749;49.964;7.890;2023-09-12T01:10:22;9.73;;;6.57;;
15295;SDS011;7749;49.964;7.890;2023-09-12T01:12:49;9.00;;;6.10;;
15295;SDS011;7749;49.964;7.890;2023-09-12T01:15:17;11.73;;;6.90;;
15295;SDS011;7749;49.964;7.890;2023-09-12T01:17:45;12.32;;;6.85;;
15295;SDS011;7749;49.964;7.890;2023-09-12T01:20:16;13.20;;;7.47;;
15295;SDS011;7749;49.964;7.890;2023-09-12T01:27:54;10.18;;;6.75;;
15295;SDS011;7749;49.964;7.890;2023-09-12T01:30:25;9.55;;;6.07;;
15295;SDS011;7749;49.964;7.890;2023-09-12T01:32:54;9.65;;;6.50;;
15295;SDS011;7749;49.964;7.890;2023-09-12T01:35:22;10.93;;;6.72;;
15295;SDS011;7749;49.964;7.890;2023-09-12T01:37:50;11.85;;;6.15;;
15295;SDS011;7749;49.964;7.890;2023-09-12T01:40:18;8.48;;;6.20;;
15295;SDS011;7749;49.964;7.890;2023-09-12T01:43:00;9.43;;;6.50;;
15295;SDS011;7749;49.964;7.890;2023-09-12T01:45:28;10.52;;;6.80;;
15295;SDS011;7749;49.964;7.890;2023-09-12T01:47:56;10.43;;;6.50;;
15295;SDS011;7749;49.964;7.890;2023-09-12T01:50:25;9.32;;;6.25;;
15295;SDS011;7749;49.964;7.890;2023-09-12T01:52:55;8.90;;;6.40;;
15295;SDS011;7749;49.964;7.890;2023-09-12T01:55:23;12.43;;;6.82;;
15295;SDS011;7749;49.964;7.890;2023-09-12T01:57:52;9.32;;;6.82;;
15295;SDS011;7749;49.964;7.890;2023-09-12T02:00:19;9.90;;;6.82;;
15295;SDS011;7749;49.964;7.890;2023-09-12T02:02:49;11.20;;;6.35;;
15295;SDS011;7749;49.964;7.890;2023-09-12T02:05:18;12.38;;;7.05;;
15295;SDS011;7749;49.964;7.890;2023-09-12T02:07:50;12.75;;;7.43;;
15295;SDS011;7749;49.964;7.890;2023-09-12T02:10:17;10.75;;;6.57;;
15295;SDS011;7749;49.964;7.890;2023-09-12T02:12:45;9.07;;;6.80;;
15295;SDS011;7749;49.964;7.890;2023-09-12T02:15:12;13.05;;;7.15;;
15295;SDS011;7749;49.964;7.890;2023-09-12T02:17:40;15.13;;;6.93;;
15295;SDS011;7749;49.964;7.890;2023-09-12T02:20:08;13.63;;;6.75;;
15295;SDS011;7749;49.964;7.890;2023-09-12T02:22:36;11.77;;;6.63;;
15295;SDS011;7749;49.964;7.890;2023-09-12T02:25:06;10.35;;;6.60;;
15295;SDS011;7749;49.964;7.890;2023-09-12T02:27:35;11.02;;;6.50;;
15295;SDS011;7749;49.964;7.890;2023-09-12T02:30:02;12.10;;;6.75;;
15295;SDS011;7749;49.964;7.890;2023-09-12T02:32:30;12.27;;;7.43;;
15295;SDS011;7749;49.964;7.890;2023-09-12T02:34:58;9.18;;;6.80;;
15295;SDS011;7749;49.964;7.890;2023-09-12T02:37:25;12.55;;;6.65;;
15295;SDS011;7749;49.964;7.890;2023-09-12T02:39:53;12.40;;;7.53;;
15295;SDS011;7749;49.964;7.890;2023-09-12T02:42:20;15.73;;;6.88;;
15295;SDS011;7749;49.964;7.890;2023-09-12T02:44:48;10.07;;;7.05;;
15295;SDS011;7749;49.964;7.890;2023-09-12T02:47:15;12.07;;;6.63;;
15295;SDS011;7749;49.964;7.890;2023-09-12T02:49:43;13.98;;;6.68;;
15295;SDS011;7749;49.964;7.890;2023-09-12T02:52:10;9.65;;;6.25;;
15295;SDS011;7749;49.964;7.890;2023-09-12T02:54:37;12.65;;;6.25;;
15295;SDS011;7749;49.964;7.890;2023-09-12T02:57:05;10.98;;;6.68;;
15295;SDS011;7749;49.964;7.890;2023-09-12T02:59:32;11.73;;;6.95;;
15295;SDS011;7749;49.964;7.890;2023-09-12T03:02:00;13.68;;;7.07;;
15295;SDS011;7749;49.964;7.890;2023-09-12T03:04:29;10.82;;;6.43;;
15295;SDS011;7749;49.964;7.890;2023-09-12T03:06:56;9.13;;;5.95;;
15295;SDS011;7749;49.964;7.890;2023-09-12T03:09:24;11.90;;;6.53;;
15295;SDS011;7749;49.964;7.890;2023-09-12T03:11:51;10.45;;;6.45;;
15295;SDS011;7749;49.964;7.890;2023-09-12T03:14:19;9.63;;;6.55;;
15295;SDS011;7749;49.964;7.890;2023-09-12T03:16:46;8.88;;;6.60;;
15295;SDS011;7749;49.964;7.890;2023-09-12T03:19:14;11.80;;;6.97;;
15295;SDS011;7749;49.964;7.890;2023-09-12T03:21:41;9.65;;;6.57;;
15295;SDS011;7749;49.964;7.890;2023-09-12T03:24:09;14.10;;;7.05;;
15295;SDS011;7749;49.964;7.890;2023-09-12T03:26:39;9.52;;;6.93;;
15295;SDS011;7749;49.964;7.890;2023-09-12T03:29:06;8.95;;;6.15;;
15295;SDS011;7749;49.964;7.890;2023-09-12T03:31:34;13.32;;;7.05;;
15295;SDS011;7749;49.964;7.890;2023-09-12T03:34:02;10.38;;;7.20;;
15295;SDS011;7749;49.964;7.890;2023-09-12T03:36:30;9.43;;;7.07;;
15295;SDS011;7749;49.964;7.890;2023-09-12T03:38:57;10.60;;;7.07;;
15295;SDS011;7749;49.964;7.890;2023-09-12T03:41:25;8.98;;;6.78;;
15295;SDS011;7749;49.964;7.890;2023-09-12T03:43:53;14.25;;;6.75;;
15295;SDS011;7749;49.964;7.890;2023-09-12T03:46:22;11.70;;;7.22;;
15295;SDS011;7749;49.964;7.890;2023-09-12T03:48:49;10.27;;;6.88;;
15295;SDS011;7749;49.964;7.890;2023-09-12T03:51:17;9.75;;;7.20;;
15295;SDS011;7749;49.964;7.890;2023-09-12T03:53:45;11.90;;;7.80;;
15295;SDS011;7749;49.964;7.890;2023-09-12T03:56:14;12.23;;;7.28;;
15295;SDS011;7749;49.964;7.890;2023-09-12T03:58:42;11.43;;;6.75;;
15295;SDS011;7749;49.964;7.890;2023-09-12T04:01:10;8.18;;;6.57;;
15295;SDS011;7749;49.964;7.890;2023-09-12T04:03:37;12.23;;;7.53;;
15295;SDS011;7749;49.964;7.890;2023-09-12T04:06:05;13.30;;;7.28;;
15295;SDS011;7749;49.964;7.890;2023-09-12T04:08:33;12.45;;;7.57;;
15295;SDS011;7749;49.964;7.890;2023-09-12T04:11:00;15.77;;;7.15;;
15295;SDS011;7749;49.964;7.890;2023-09-12T04:13:27;15.32;;;7.03;;
15295;SDS011;7749;49.964;7.890;2023-09-12T04:15:55;9.70;;;6.70;;
15295;SDS011;7749;49.964;7.890;2023-09-12T04:18:23;11.05;;;7.80;;
15295;SDS011;7749;49.964;7.890;2023-09-12T04:20:50;14.52;;;7.43;;
15295;SDS011;7749;49.964;7.890;2023-09-12T04:23:18;11.57;;;7.85;;
15295;SDS011;7749;49.964;7.890;2023-09-12T04:25:45;10.25;;;6.95;;
15295;SDS011;7749;49.964;7.890;2023-09-12T04:28:13;9.52;;;7.13;;
15295;SDS011;7749;49.964;7.890;2023-09-12T04:30:40;9.82;;;6.82;;
15295;SDS011;7749;49.964;7.890;2023-09-12T04:33:11;10.55;;;7.07;;
15295;SDS011;7749;49.964;7.890;2023-09-12T04:35:39;12.98;;;8.15;;
15295;SDS011;7749;49.964;7.890;2023-09-12T04:38:07;9.70;;;7.00;;
15295;SDS011;7749;49.964;7.890;2023-09-12T04:40:35;14.18;;;7.50;;
15295;SDS011;7749;49.964;7.890;2023-09-12T04:43:02;9.93;;;7.25;;
15295;SDS011;7749;49.964;7.890;2023-09-12T04:45:32;12.80;;;7.40;;
15295;SDS011;7749;49.964;7.890;2023-09-12T04:48:00;10.73;;;7.18;;
15295;SDS011;7749;49.964;7.890;2023-09-12T04:50:27;10.15;;;7.93;;
15295;SDS011;7749;49.964;7.890;2023-09-12T04:52:55;12.90;;;7.60;;
15295;SDS011;7749;49.964;7.890;2023-09-12T04:55:22;9.73;;;7.15;;
15295;SDS011;7749;49.964;7.890;2023-09-12T04:57:49;10.75;;;7.68;;
15295;SDS011;7749;49.964;7.890;2023-09-12T05:00:17;12.65;;;7.97;;
15295;SDS011;7749;49.964;7.890;2023-09-12T05:02:44;13.30;;;8.20;;
15295;SDS011;7749;49.964;7.890;2023-09-12T05:05:12;13.02;;;8.07;;
15295;SDS011;7749;49.964;7.890;2023-09-12T05:07:39;12.00;;;7.70;;
15295;SDS011;7749;49.964;7.890;2023-09-12T05:10:07;12.20;;;7.85;;
15295;SDS011;7749;49.964;7.890;2023-09-12T05:12:34;11.35;;;7.80;;
15295;SDS011;7749;49.964;7.890;2023-09-12T05:15:02;10.40;;;7.90;;
15295;SDS011;7749;49.964;7.890;2023-09-12T05:17:30;10.25;;;7.90;;
15295;SDS011;7749;49.964;7.890;2023-09-12T05:19:57;12.10;;;7.80;;
15295;SDS011;7749;49.964;7.890;2023-09-12T05:22:24;11.82;;;7.78;;
15295;SDS011;7749;49.964;7.890;2023-09-12T05:24:52;10.95;;;8.50;;
15295;SDS011;7749;49.964;7.890;2023-09-12T05:27:19;10.20;;;8.10;;
15295;SDS011;7749;49.964;7.890;2023-09-12T05:29:47;15.18;;;9.13;;
15295;SDS011;7749;49.964;7.890;2023-09-12T05:32:14;12.80;;;9.23;;
15295;SDS011;7749;49.964;7.890;2023-09-12T05:34:43;11.95;;;9.00;;
15295;SDS011;7749;49.964;7.890;2023-09-12T05:37:12;11.60;;;8.43;;
15295;SDS011;7749;49.964;7.890;2023-09-12T05:39:39;13.52;;;8.88;;
15295;SDS011;7749;49.964;7.890;2023-09-12T05:42:07;12.60;;;9.30;;
15295;SDS011;7749;49.964;7.890;2023-09-12T05:44:34;14.23;;;8.77;;
15295;SDS011;7749;49.964;7.890;2023-09-12T05:47:01;14.32;;;8.00;;
15295;SDS011;7749;49.964;7.890;2023-09-12T05:49:29;12.82;;;9.70;;
15295;SDS011;7749;49.964;7.890;2023-09-12T05:51:58;15.90;;;9.48;;
15295;SDS011;7749;49.964;7.890;2023-09-12T05:54:25;12.55;;;9.05;;
15295;SDS011;7749;49.964;7.890;2023-09-12T05:56:53;15.80;;;9.10;;
15295;SDS011;7749;49.964;7.890;2023-09-12T05:59:20;15.68;;;9.18;;
15295;SDS011;7749;49.964;7.890;2023-09-12T06:01:48;14.32;;;8.73;;
15295;SDS011;7749;49.964;7.890;2023-09-12T06:04:15;11.45;;;7.95;;
15295;SDS011;7749;49.964;7.890;2023-09-12T06:06:43;13.68;;;8.07;;
15295;SDS011;7749;49.964;7.890;2023-09-12T06:09:12;12.65;;;8.00;;
15295;SDS011;7749;49.964;7.890;2023-09-12T06:11:39;13.02;;;7.32;;
15295;SDS011;7749;49.964;7.890;2023-09-12T06:14:07;10.93;;;7.95;;
15295;SDS011;7749;49.964;7.890;2023-09-12T06:16:34;14.60;;;7.47;;
15295;SDS011;7749;49.964;7.890;2023-09-12T06:19:02;18.90;;;8.02;;
15295;SDS011;7749;49.964;7.890;2023-09-12T06:21:29;14.48;;;7.90;;
15295;SDS011;7749;49.964;7.890;2023-09-12T06:24:13;11.05;;;7.90;;
15295;SDS011;7749;49.964;7.890;2023-09-12T06:26:45;10.52;;;7.40;;
15295;SDS011;7749;49.964;7.890;2023-09-12T06:29:13;10.32;;;7.80;;
15295;SDS011;7749;49.964;7.890;2023-09-12T06:31:41;11.30;;;8.60;;
15295;SDS011;7749;49.964;7.890;2023-09-12T06:34:09;13.90;;;8.65;;
15295;SDS011;7749;49.964;7.890;2023-09-12T06:36:38;11.68;;;8.73;;
15295;SDS011;7749;49.964;7.890;2023-09-12T06:39:05;14.93;;;9.38;;
15295;SDS011;7749;49.964;7.890;2023-09-12T06:41:33;11.18;;;8.90;;
15295;SDS011;7749;49.964;7.890;2023-09-12T06:44:00;15.80;;;10.02;;
15295;SDS011;7749;49.964;7.890;2023-09-12T06:46:29;11.63;;;9.32;;
15295;SDS011;7749;49.964;7.890;2023-09-12T06:48:57;12.57;;;8.40;;
15295;SDS011;7749;49.964;7.890;2023-09-12T06:51:25;13.43;;;8.02;;
15295;SDS011;7749;49.964;7.890;2023-09-12T06:53:58;12.80;;;8.05;;
15295;SDS011;7749;49.964;7.890;2023-09-12T06:56:26;10.38;;;7.93;;
15295;SDS011;7749;49.964;7.890;2023-09-12T06:58:54;9.55;;;7.80;;
15295;SDS011;7749;49.964;7.890;2023-09-12T07:01:22;13.23;;;8.20;;
15295;SDS011;7749;49.964;7.890;2023-09-12T07:03:49;13.73;;;7.95;;
15295;SDS011;7749;49.964;7.890;2023-09-12T07:06:21;11.95;;;7.68;;
15295;SDS011;7749;49.964;7.890;2023-09-12T07:08:49;12.32;;;8.32;;
15295;SDS011;7749;49.964;7.890;2023-09-12T07:11:16;11.60;;;8.93;;
15295;SDS011;7749;49.964;7.890;2023-09-12T07:13:46;11.70;;;8.07;;
15295;SDS011;7749;49.964;7.890;2023-09-12T07:16:13;11.48;;;7.85;;
15295;SDS011;7749;49.964;7.890;2023-09-12T07:18:41;10.30;;;7.45;;
15295;SDS011;7749;49.964;7.890;2023-09-12T07:21:08;12.77;;;8.05;;
15295;SDS011;7749;49.964;7.890;2023-09-12T07:23:38;15.75;;;7.85;;
15295;SDS011;7749;49.964;7.890;2023-09-12T07:26:05;9.55;;;7.30;;
15295;SDS011;7749;49.964;7.890;2023-09-12T07:28:38;18.15;;;8.57;;
15295;SDS011;7749;49.964;7.890;2023-09-12T07:31:05;9.65;;;7.55;;
15295;SDS011;7749;49.964;7.890;2023-09-12T07:33:33;12.43;;;7.60;;
15295;SDS011;7749;49.964;7.890;2023-09-12T07:36:00;10.93;;;7.50;;
15295;SDS011;7749;49.964;7.890;2023-09-12T07:38:29;10.93;;;8.20;;
15295;SDS011;7749;49.964;7.890;2023-09-12T07:41:02;17.75;;;8.77;;
15295;SDS011;7749;49.964;7.890;2023-09-12T07:43:30;15.48;;;8.60;;
15295;SDS011;7749;49.964;7.890;2023-09-12T07:45:57;10.18;;;8.07;;
15295;SDS011;7749;49.964;7.890;2023-09-12T07:48:26;14.88;;;7.82;;
15295;SDS011;7749;49.964;7.890;2023-09-12T07:50:54;12.57;;;8.15;;
15295;SDS011;7749;49.964;7.890;2023-09-12T07:53:22;17.92;;;8.43;;
15295;SDS011;7749;49.964;7.890;2023-09-12T07:55:49;13.95;;;8.60;;
15295;SDS011;7749;49.964;7.890;2023-09-12T07:58:17;14.98;;;7.75;;
15295;SDS011;7749;49.964;7.890;2023-09-12T08:00:46;12.02;;;7.95;;
15295;SDS011;7749;49.964;7.890;2023-09-12T08:03:13;16.58;;;8.38;;
15295;SDS011;7749;49.964;7.890;2023-09-12T08:05:42;16.63;;;8.10;;
15295;SDS011;7749;49.964;7.890;2023-09-12T08:08:10;15.60;;;8.25;;
15295;SDS011;7749;49.964;7.890;2023-09-12T08:10:37;15.85;;;8.63;;
15295;SDS011;7749;49.964;7.890;2023-09-12T08:13:05;9.95;;;7.80;;
15295;SDS011;7749;49.964;7.890;2023-09-12T08:15:32;13.25;;;8.48;;
15295;SDS011;7749;49.964;7.890;2023-09-12T08:17:59;17.45;;;8.77;;
15295;SDS011;7749;49.964;7.890;2023-09-12T08:20:27;12.63;;;8.20;;
15295;SDS011;7749;49.964;7.890;2023-09-12T08:22:55;12.90;;;8.60;;
15295;SDS011;7749;49.964;7.890;2023-09-12T08:25:22;14.13;;;8.32;;
15295;SDS011;7749;49.964;7.890;2023-09-12T08:27:51;13.75;;;8.85;;
15295;SDS011;7749;49.964;7.890;2023-09-12T08:30:18;14.70;;;8.18;;
15295;SDS011;7749;49.964;7.890;2023-09-12T08:32:46;12.32;;;7.75;;
15295;SDS011;7749;49.964;7.890;2023-09-12T08:35:14;13.57;;;7.28;;
15295;SDS011;7749;49.964;7.890;2023-09-12T08:37:42;16.80;;;7.90;;
15295;SDS011;7749;49.964;7.890;2023-09-12T08:40:10;14.77;;;8.05;;
15295;SDS011;7749;49.964;7.890;2023-09-12T08:42:39;13.32;;;8.38;;
15295;SDS011;7749;49.964;7.890;2023-09-12T08:45:09;12.57;;;8.32;;
15295;SDS011;7749;49.964;7.890;2023-09-12T08:47:40;13.85;;;8.23;;
15295;SDS011;7749;49.964;7.890;2023-09-12T08:50:10;12.57;;;7.40;;
15295;SDS011;7749;49.964;7.890;2023-09-12T08:52:40;15.13;;;7.72;;
15295;SDS011;7749;49.964;7.890;2023-09-12T08:55:25;15.88;;;7.80;;
15295;SDS011;7749;49.964;7.890;2023-09-12T09:00:36;16.08;;;8.40;;
15295;SDS011;7749;49.964;7.890;2023-09-12T09:03:10;14.77;;;7.47;;
15295;SDS011;7749;49.964;7.890;2023-09-12T09:05:48;11.90;;;7.60;;
15295;SDS011;7749;49.964;7.890;2023-09-12T09:08:18;13.02;;;8.05;;
15295;SDS011;7749;49.964;7.890;2023-09-12T09:11:01;13.70;;;7.97;;
15295;SDS011;7749;49.964;7.890;2023-09-12T09:13:33;14.68;;;8.15;;
15295;SDS011;7749;49.964;7.890;2023-09-12T09:16:10;14.02;;;7.65;;
15295;SDS011;7749;49.964;7.890;2023-09-12T09:21:37;14.10;;;7.70;;
15295;SDS011;7749;49.964;7.890;2023-09-12T09:24:08;11.80;;;7.82;;
15295;SDS011;7749;49.964;7.890;2023-09-12T09:26:50;12.80;;;7.53;;
15295;SDS011;7749;49.964;7.890;2023-09-12T09:29:19;15.07;;;7.85;;
15295;SDS011;7749;49.964;7.890;2023-09-12T09:31:48;17.25;;;8.55;;
15295;SDS011;7749;49.964;7.890;2023-09-12T09:34:17;17.42;;;8.63;;
15295;SDS011;7749;49.964;7.890;2023-09-12T09:36:47;11.93;;;7.38;;
15295;SDS011;7749;49.964;7.890;2023-09-12T09:39:16;12.93;;;7.90;;
15295;SDS011;7749;49.964;7.890;2023-09-12T09:41:49;13.43;;;7.68;;
15295;SDS011;7749;49.964;7.890;2023-09-12T09:44:18;15.07;;;8.35;;
15295;SDS011;7749;49.964;7.890;2023-09-12T09:46:50;13.00;;;8.35;;
15295;SDS011;7749;49.964;7.890;2023-09-12T09:49:19;14.88;;;8.75;;
15295;SDS011;7749;49.964;7.890;2023-09-12T09:51:48;12.43;;;7.78;;
15295;SDS011;7749;49.964;7.890;2023-09-12T09:54:16;11.30;;;8.25;;
15295;SDS011;7749;49.964;7.890;2023-09-12T09:56:50;15.27;;;8.07;;
15295;SDS011;7749;49.964;7.890;2023-09-12T09:59:22;11.38;;;7.95;;
15295;SDS011;7749;49.964;7.890;2023-09-12T10:01:59;13.25;;;8.25;;
15295;SDS011;7749;49.964;7.890;2023-09-12T10:04:28;12.23;;;8.00;;
15295;SDS011;7749;49.964;7.890;2023-09-12T10:06:57;17.45;;;8.07;;
15295;SDS011;7749;49.964;7.890;2023-09-12T10:09:29;14.85;;;8.77;;
15295;SDS011;7749;49.964;7.890;2023-09-12T10:11:58;11.57;;;7.97;;
15295;SDS011;7749;49.964;7.890;2023-09-12T10:14:26;10.25;;;7.97;;
15295;SDS011;7749;49.964;7.890;2023-09-12T10:16:57;14.07;;;8.18;;
15295;SDS011;7749;49.964;7.890;2023-09-12T10:19:43;10.98;;;7.18;;
15295;SDS011;7749;49.964;7.890;2023-09-12T10:22:31;13.65;;;7.72;;
15295;SDS011;7749;49.964;7.890;2023-09-12T10:25:04;15.07;;;8.48;;
15295;SDS011;7749;49.964;7.890;2023-09-12T10:27:33;16.13;;;7.97;;
15295;SDS011;7749;49.964;7.890;2023-09-12T10:30:01;14.35;;;7.72;;
15295;SDS011;7749;49.964;7.890;2023-09-12T10:32:31;13.40;;;7.95;;
15295;SDS011;7749;49.964;7.890;2023-09-12T10:35:00;14.82;;;7.93;;
15295;SDS011;7749;49.964;7.890;2023-09-12T10:37:30;14.18;;;7.47;;
15295;SDS011;7749;49.964;7.890;2023-09-12T10:40:05;12.68;;;7.93;;
15295;SDS011;7749;49.964;7.890;2023-09-12T10:42:35;12.82;;;8.02;;
15295;SDS011;7749;49.964;7.890;2023-09-12T10:45:04;11.35;;;7.80;;
15295;SDS011;7749;49.964;7.890;2023-09-12T10:47:35;12.20;;;7.20;;
15295;SDS011;7749;49.964;7.890;2023-09-12T10:50:08;11.52;;;7.20;;
15295;SDS011;7749;49.964;7.890;2023-09-12T10:53:13;13.40;;;7.55;;
15295;SDS011;7749;49.964;7.890;2023-09-12T10:55:42;9.77;;;7.05;;
15295;SDS011;7749;49.964;7.890;2023-09-12T10:58:31;12.35;;;7.35;;
15295;SDS011;7749;49.964;7.890;2023-09-12T11:03:52;11.95;;;7.97;;
15295;SDS011;7749;49.964;7.890;2023-09-12T11:06:28;10.13;;;6.88;;
15295;SDS011;7749;49.964;7.890;2023-09-12T11:09:16;14.05;;;7.45;;
15295;SDS011;7749;49.964;7.890;2023-09-12T11:12:03;12.48;;;7.35;;
15295;SDS011;7749;49.964;7.890;2023-09-12T11:15:03;10.70;;;8.05;;
15295;SDS011;7749;49.964;7.890;2023-09-12T11:17:44;13.10;;;8.48;;
15295;SDS011;7749;49.964;7.890;2023-09-12T11:21:07;12.68;;;8.75;;
15295;SDS011;7749;49.964;7.890;2023-09-12T11:23:49;14.48;;;9.35;;
15295;SDS011;7749;49.964;7.890;2023-09-12T11:26:35;11.70;;;8.80;;
15295;SDS011;7749;49.964;7.890;2023-09-12T11:30:18;14.65;;;9.52;;
15295;SDS011;7749;49.964;7.890;2023-09-12T11:33:27;11.48;;;9.52;;
15295;SDS011;7749;49.964;7.890;2023-09-12T11:36:14;13.45;;;8.60;;
15295;SDS011;7749;49.964;7.890;2023-09-12T11:38:51;18.25;;;9.23;;
15295;SDS011;7749;49.964;7.890;2023-09-12T11:42:19;10.57;;;8.60;;
15295;SDS011;7749;49.964;7.890;2023-09-12T11:44:43;10.43;;;8.02;;
15295;SDS011;7749;49.964;7.890;2023-09-12T11:47:42;12.85;;;8.63;;
15295;SDS011;7749;49.964;7.890;2023-09-12T11:50:29;14.57;;;9.38;;
15295;SDS011;7749;49.964;7.890;2023-09-12T11:53:04;11.23;;;8.68;;
15295;SDS011;7749;49.964;7.890;2023-09-12T11:55:50;11.80;;;8.98;;
15295;SDS011;7749;49.964;7.890;2023-09-12T11:58:23;11.63;;;8.88;;
15295;SDS011;7749;49.964;7.890;2023-09-12T12:00:58;11.52;;;8.70;;
15295;SDS011;7749;49.964;7.890;2023-09-12T12:03:37;11.05;;;8.73;;
15295;SDS011;7749;49.964;7.890;2023-09-12T12:06:20;11.38;;;8.52;;
15295;SDS011;7749;49.964;7.890;2023-09-12T12:09:42;12.18;;;8.25;;
15295;SDS011;7749;49.964;7.890;2023-09-12T12:12:20;10.98;;;7.88;;
15295;SDS011;7749;49.964;7.890;2023-09-12T12:15:01;9.55;;;8.05;;
15295;SDS011;7749;49.964;7.890;2023-09-12T12:17:39;11.50;;;8.88;;
15295;SDS011;7749;49.964;7.890;2023-09-12T12:20:14;10.75;;;7.85;;
15295;SDS011;7749;49.964;7.890;2023-09-12T12:22:42;11.32;;;8.25;;
15295;SDS011;7749;49.964;7.890;2023-09-12T12:25:10;10.80;;;8.50;;
15295;SDS011;7749;49.964;7.890;2023-09-12T12:27:38;11.90;;;7.90;;
15295;SDS011;7749;49.964;7.890;2023-09-12T12:30:10;12.27;;;9.07;;
15295;SDS011;7749;49.964;7.890;2023-09-12T12:32:40;11.55;;;8.55;;
15295;SDS011;7749;49.964;7.890;2023-09-12T12:35:19;10.07;;;8.30;;
15295;SDS011;7749;49.964;7.890;2023-09-12T12:38:07;11.88;;;8.50;;
15295;SDS011;7749;49.964;7.890;2023-09-12T12:40:39;9.15;;;7.97;;
15295;SDS011;7749;49.964;7.890;2023-09-12T12:43:17;9.48;;;7.93;;
15295;SDS011;7749;49.964;7.890;2023-09-12T12:45:55;12.02;;;8.27;;
15295;SDS011;7749;49.964;7.890;2023-09-12T12:48:31;11.40;;;7.90;;
15295;SDS011;7749;49.964;7.890;2023-09-12T12:51:12;9.98;;;7.50;;
15295;SDS011;7749;49.964;7.890;2023-09-12T12:53:45;14.07;;;7.40;;
15295;SDS011;7749;49.964;7.890;2023-09-12T12:56:28;9.82;;;7.55;;
15295;SDS011;7749;49.964;7.890;2023-09-12T12:58:58;8.65;;;7.55;;
15295;SDS011;7749;49.964;7.890;2023-09-12T13:01:30;11.23;;;7.90;;
15295;SDS011;7749;49.964;7.890;2023-09-12T13:03:58;9.45;;;7.80;;
15295;SDS011;7749;49.964;7.890;2023-09-12T13:06:26;9.38;;;7.90;;
15295;SDS011;7749;49.964;7.890;2023-09-12T13:08:54;10.50;;;7.95;;
15295;SDS011;7749;49.964;7.890;2023-09-12T13:11:24;9.77;;;8.18;;
15295;SDS011;7749;49.964;7.890;2023-09-12T13:13:51;10.68;;;8.52;;
15295;SDS011;7749;49.964;7.890;2023-09-12T13:16:19;11.02;;;9.00;;
15295;SDS011;7749;49.964;7.890;2023-09-12T13:18:47;9.38;;;8.45;;
15295;SDS011;7749;49.964;7.890;2023-09-12T13:21:14;11.70;;;8.90;;
15295;SDS011;7749;49.964;7.890;2023-09-12T13:23:42;10.15;;;8.50;;
15295;SDS011;7749;49.964;7.890;2023-09-12T13:26:10;11.13;;;8.90;;
15295;SDS011;7749;49.964;7.890;2023-09-12T13:28:37;10.50;;;9.55;;
15295;SDS011;7749;49.964;7.890;2023-09-12T13:31:05;11.75;;;9.10;;
15295;SDS011;7749;49.964;7.890;2023-09-12T13:33:33;11.25;;;8.90;;
15295;SDS011;7749;49.964;7.890;2023-09-12T13:36:00;10.20;;;8.88;;
15295;SDS011;7749;49.964;7.890;2023-09-12T13:38:28;11.38;;;9.27;;
15295;SDS011;7749;49.964;7.890;2023-09-12T13:40:55;10.10;;;9.10;;
15295;SDS011;7749;49.964;7.890;2023-09-12T13:43:23;11.15;;;8.70;;
15295;SDS011;7749;49.964;7.890;2023-09-12T13:45:50;14.23;;;9.27;;
15295;SDS011;7749;49.964;7.890;2023-09-12T13:48:18;11.73;;;9.15;;
15295;SDS011;7749;49.964;7.890;2023-09-12T13:50:45;10.00;;;9.07;;
15295;SDS011;7749;49.964;7.890;2023-09-12T13:53:13;10.48;;;9.52;;
15295;SDS011;7749;49.964;7.890;2023-09-12T13:55:41;13.82;;;9.30;;
15295;SDS011;7749;49.964;7.890;2023-09-12T13:58:26;12.75;;;10.82;;
15295;SDS011;7749;49.964;7.890;2023-09-12T14:01:07;13.30;;;9.38;;
15295;SDS011;7749;49.964;7.890;2023-09-12T14:03:36;10.00;;;9.00;;
15295;SDS011;7749;49.964;7.890;2023-09-12T14:06:03;10.13;;;9.15;;
15295;SDS011;7749;49.964;7.890;2023-09-12T14:08:31;10.02;;;8.80;;
15295;SDS011;7749;49.964;7.890;2023-09-12T14:10:59;12.32;;;9.25;;
15295;SDS011;7749;49.964;7.890;2023-09-12T14:13:27;10.18;;;9.18;;
15295;SDS011;7749;49.964;7.890;2023-09-12T14:15:54;10.73;;;9.65;;
15295;SDS011;7749;49.964;7.890;2023-09-12T14:18:24;10.70;;;9.70;;
15295;SDS011;7749;49.964;7.890;2023-09-12T14:20:52;10.60;;;9.68;;
15295;SDS011;7749;49.964;7.890;2023-09-12T14:23:20;10.70;;;9.70;;
15295;SDS011;7749;49.964;7.890;2023-09-12T14:25:48;12.15;;;10.25;;
15295;SDS011;7749;49.964;7.890;2023-09-12T14:28:16;10.45;;;9.55;;
15295;SDS011;7749;49.964;7.890;2023-09-12T14:30:45;12.23;;;9.82;;
15295;SDS011;7749;49.964;7.890;2023-09-12T14:33:13;10.70;;;9.60;;
15295;SDS011;7749;49.964;7.890;2023-09-12T14:35:44;11.23;;;10.18;;
15295;SDS011;7749;49.964;7.890;2023-09-12T14:38:12;11.25;;;10.20;;
15295;SDS011;7749;49.964;7.890;2023-09-12T14:40:39;13.57;;;10.60;;
15295;SDS011;7749;49.964;7.890;2023-09-12T14:43:11;12.10;;;11.00;;
15295;SDS011;7749;49.964;7.890;2023-09-12T14:45:39;12.13;;;10.95;;
15295;SDS011;7749;49.964;7.890;2023-09-12T14:48:06;12.57;;;11.30;;
15295;SDS011;7749;49.964;7.890;2023-09-12T14:50:34;13.35;;;11.50;;
15295;SDS011;7749;49.964;7.890;2023-09-12T14:53:12;12.88;;;10.75;;
15295;SDS011;7749;49.964;7.890;2023-09-12T14:55:41;13.45;;;10.77;;
15295;SDS011;7749;49.964;7.890;2023-09-12T14:58:09;12.73;;;11.45;;
15295;SDS011;7749;49.964;7.890;2023-09-12T15:00:36;12.07;;;10.82;;
15295;SDS011;7749;49.964;7.890;2023-09-12T15:03:05;14.30;;;11.07;;
15295;SDS011;7749;49.964;7.890;2023-09-12T15:05:33;12.45;;;11.02;;
15295;SDS011;7749;49.964;7.890;2023-09-12T15:08:00;13.90;;;10.02;;
15295;SDS011;7749;49.964;7.890;2023-09-12T15:10:28;13.02;;;10.60;;
15295;SDS011;7749;49.964;7.890;2023-09-12T15:12:55;11.25;;;10.23;;
15295;SDS011;7749;49.964;7.890;2023-09-12T15:15:23;11.13;;;9.65;;
15295;SDS011;7749;49.964;7.890;2023-09-12T15:17:50;12.85;;;9.43;;
15295;SDS011;7749;49.964;7.890;2023-09-12T15:20:18;10.25;;;9.20;;
15295;SDS011;7749;49.964;7.890;2023-09-12T15:22:45;11.05;;;9.90;;